sensor_id;sensor_type;location;lat;lon;timestamp;P1;durP1;ratioP1;P2;durP2;ratioP2
45392;SDS011;31129;44.810;10.334;2022-12-31T00:01:08;123.28;;;56.08;;
45392;SDS011;31129;44.810;10.334;2022-12-31T00:03:35;119.35;;;57.63;;
45392;SDS011;31129;44.810;10.334;2022-12-31T00:06:01;115.05;;;55.25;;
45392;SDS011;31129;44.810;10.334;2022-12-31T00:08:37;115.70;;;56.30;;
45392;SDS011;31129;44.810;10.334;2022-12-31T00:11:03;119.18;;;56.05;;
45392;SDS011;31129;44.810;10.334;2022-12-31T00:13:28;116.28;;;55.35;;
45392;SDS011;31129;44.810;10.334;2022-12-31T00:15:54;126.68;;;56.30;;
45392;SDS011;31129;44.810;10.334;2022-12-31T00:18:19;118.65;;;53.92;;
45392;SDS011;31129;44.810;10.334;2022-12-31T00:20:44;120.40;;;54.35;;
45392;SDS011;31129;44.810;10.334;2022-12-31T00:23:10;121.28;;;57.22;;
45392;SDS011;31129;44.810;10.334;2022-12-31T00:25:36;127.03;;;57.20;;
45392;SDS011;31129;44.810;10.334;2022-12-31T00:28:02;125.82;;;57.85;;
45392;SDS011;31129;44.810;10.334;2022-12-31T00:30:28;123.03;;;57.33;;
45392;SDS011;31129;44.810;10.334;2022-12-31T00:32:53;123.93;;;56.80;;
45392;SDS011;31129;44.810;10.334;2022-12-31T00:35:22;126.60;;;54.05;;
45392;SDS011;31129;44.810;10.334;2022-12-31T00:37:47;127.70;;;54.42;;
45392;SDS011;31129;44.810;10.334;2022-12-31T00:42:41;128.65;;;55.38;;
45392;SDS011;31129;44.810;10.334;2022-12-31T00:45:06;128.65;;;55.22;;
45392;SDS011;31129;44.810;10.334;2022-12-31T00:47:32;123.95;;;55.85;;
45392;SDS011;31129;44.810;10.334;2022-12-31T00:49:58;133.13;;;56.47;;
45392;SDS011;31129;44.810;10.334;2022-12-31T00:52:23;140.68;;;58.28;;
45392;SDS011;31129;44.810;10.334;2022-12-31T00:54:48;140.43;;;59.42;;
45392;SDS011;31129;44.810;10.334;2022-12-31T00:57:14;140.45;;;59.97;;
45392;SDS011;31129;44.810;10.334;2022-12-31T00:59:40;142.57;;;58.10;;
45392;SDS011;31129;44.810;10.334;2022-12-31T01:02:05;145.10;;;59.55;;
45392;SDS011;31129;44.810;10.334;2022-12-31T01:04:31;154.38;;;58.92;;
45392;SDS011;31129;44.810;10.334;2022-12-31T01:06:56;151.80;;;60.13;;
45392;SDS011;31129;44.810;10.334;2022-12-31T01:09:22;140.70;;;58.42;;
45392;SDS011;31129;44.810;10.334;2022-12-31T01:11:49;143.05;;;58.03;;
45392;SDS011;31129;44.810;10.334;2022-12-31T01:14:16;148.27;;;58.85;;
45392;SDS011;31129;44.810;10.334;2022-12-31T01:16:50;140.50;;;56.53;;
45392;SDS011;31129;44.810;10.334;2022-12-31T01:19:21;151.00;;;59.90;;
45392;SDS011;31129;44.810;10.334;2022-12-31T01:21:49;146.73;;;59.05;;
45392;SDS011;31129;44.810;10.334;2022-12-31T01:24:15;137.80;;;57.15;;
45392;SDS011;31129;44.810;10.334;2022-12-31T01:26:41;142.45;;;59.95;;
45392;SDS011;31129;44.810;10.334;2022-12-31T01:29:08;142.65;;;56.92;;
45392;SDS011;31129;44.810;10.334;2022-12-31T01:31:34;144.77;;;57.70;;
45392;SDS011;31129;44.810;10.334;2022-12-31T01:34:02;141.23;;;57.55;;
45392;SDS011;31129;44.810;10.334;2022-12-31T01:36:29;145.15;;;57.22;;
45392;SDS011;31129;44.810;10.334;2022-12-31T01:38:57;143.98;;;57.38;;
45392;SDS011;31129;44.810;10.334;2022-12-31T01:41:25;140.27;;;55.92;;
45392;SDS011;31129;44.810;10.334;2022-12-31T01:43:53;139.73;;;55.60;;
45392;SDS011;31129;44.810;10.334;2022-12-31T01:46:26;143.02;;;56.05;;
45392;SDS011;31129;44.810;10.334;2022-12-31T01:48:54;132.63;;;55.00;;
45392;SDS011;31129;44.810;10.334;2022-12-31T01:51:24;137.10;;;55.33;;
45392;SDS011;31129;44.810;10.334;2022-12-31T01:53:54;127.43;;;54.95;;
45392;SDS011;31129;44.810;10.334;2022-12-31T01:56:20;132.07;;;54.58;;
45392;SDS011;31129;44.810;10.334;2022-12-31T01:58:47;133.90;;;54.05;;
45392;SDS011;31129;44.810;10.334;2022-12-31T02:01:17;137.45;;;54.00;;
45392;SDS011;31129;44.810;10.334;2022-12-31T02:03:49;132.77;;;53.60;;
45392;SDS011;31129;44.810;10.334;2022-12-31T02:06:17;133.95;;;55.25;;
45392;SDS011;31129;44.810;10.334;2022-12-31T02:08:48;126.97;;;52.85;;
45392;SDS011;31129;44.810;10.334;2022-12-31T02:13:53;126.03;;;51.38;;
45392;SDS011;31129;44.810;10.334;2022-12-31T02:16:44;127.55;;;53.90;;
45392;SDS011;31129;44.810;10.334;2022-12-31T02:19:34;123.68;;;51.17;;
45392;SDS011;31129;44.810;10.334;2022-12-31T02:22:21;125.97;;;51.22;;
45392;SDS011;31129;44.810;10.334;2022-12-31T02:35:12;112.60;;;49.10;;
45392;SDS011;31129;44.810;10.334;2022-12-31T02:37:57;108.93;;;49.63;;
45392;SDS011;31129;44.810;10.334;2022-12-31T02:40:28;110.05;;;48.70;;
45392;SDS011;31129;44.810;10.334;2022-12-31T02:45:26;106.57;;;46.95;;
45392;SDS011;31129;44.810;10.334;2022-12-31T02:50:47;114.80;;;47.95;;
45392;SDS011;31129;44.810;10.334;2022-12-31T02:59:44;114.43;;;49.28;;
45392;SDS011;31129;44.810;10.334;2022-12-31T03:02:14;111.65;;;47.60;;
45392;SDS011;31129;44.810;10.334;2022-12-31T03:07:17;109.20;;;47.55;;
45392;SDS011;31129;44.810;10.334;2022-12-31T03:09:48;103.68;;;47.28;;
45392;SDS011;31129;44.810;10.334;2022-12-31T03:12:13;112.72;;;48.75;;
45392;SDS011;31129;44.810;10.334;2022-12-31T03:14:58;109.13;;;46.92;;
45392;SDS011;31129;44.810;10.334;2022-12-31T03:17:24;103.60;;;47.17;;
45392;SDS011;31129;44.810;10.334;2022-12-31T03:19:50;98.57;;;44.83;;
45392;SDS011;31129;44.810;10.334;2022-12-31T03:22:35;97.38;;;45.42;;
45392;SDS011;31129;44.810;10.334;2022-12-31T03:25:05;98.50;;;44.42;;
45392;SDS011;31129;44.810;10.334;2022-12-31T03:27:52;106.75;;;45.42;;
45392;SDS011;31129;44.810;10.334;2022-12-31T03:30:18;93.63;;;44.47;;
45392;SDS011;31129;44.810;10.334;2022-12-31T03:32:45;94.57;;;43.83;;
45392;SDS011;31129;44.810;10.334;2022-12-31T03:35:12;88.32;;;42.17;;
45392;SDS011;31129;44.810;10.334;2022-12-31T03:37:39;84.73;;;41.00;;
45392;SDS011;31129;44.810;10.334;2022-12-31T03:40:06;78.75;;;38.45;;
45392;SDS011;31129;44.810;10.334;2022-12-31T03:42:33;83.47;;;37.40;;
45392;SDS011;31129;44.810;10.334;2022-12-31T03:44:59;78.57;;;38.10;;
45392;SDS011;31129;44.810;10.334;2022-12-31T03:47:24;79.13;;;39.08;;
45392;SDS011;31129;44.810;10.334;2022-12-31T03:49:50;73.30;;;34.88;;
45392;SDS011;31129;44.810;10.334;2022-12-31T03:52:15;69.32;;;34.83;;
45392;SDS011;31129;44.810;10.334;2022-12-31T03:54:41;72.22;;;34.95;;
45392;SDS011;31129;44.810;10.334;2022-12-31T03:57:06;65.13;;;33.35;;
45392;SDS011;31129;44.810;10.334;2022-12-31T03:59:35;69.93;;;34.65;;
45392;SDS011;31129;44.810;10.334;2022-12-31T04:02:01;67.15;;;33.70;;
45392;SDS011;31129;44.810;10.334;2022-12-31T04:04:26;66.40;;;34.25;;
45392;SDS011;31129;44.810;10.334;2022-12-31T04:06:51;69.93;;;35.22;;
45392;SDS011;31129;44.810;10.334;2022-12-31T04:09:17;67.78;;;34.13;;
45392;SDS011;31129;44.810;10.334;2022-12-31T04:11:43;67.40;;;34.40;;
45392;SDS011;31129;44.810;10.334;2022-12-31T04:14:08;70.15;;;33.45;;
45392;SDS011;31129;44.810;10.334;2022-12-31T04:16:35;64.55;;;32.17;;
45392;SDS011;31129;44.810;10.334;2022-12-31T04:19:00;69.35;;;34.60;;
45392;SDS011;31129;44.810;10.334;2022-12-31T04:21:26;60.10;;;31.92;;
45392;SDS011;31129;44.810;10.334;2022-12-31T04:23:51;62.13;;;31.00;;
45392;SDS011;31129;44.810;10.334;2022-12-31T04:26:17;66.78;;;33.55;;
45392;SDS011;31129;44.810;10.334;2022-12-31T04:28:42;57.13;;;31.20;;
45392;SDS011;31129;44.810;10.334;2022-12-31T04:33:36;56.88;;;29.90;;
45392;SDS011;31129;44.810;10.334;2022-12-31T04:36:02;58.70;;;29.42;;
45392;SDS011;31129;44.810;10.334;2022-12-31T04:38:28;55.50;;;28.40;;
45392;SDS011;31129;44.810;10.334;2022-12-31T04:40:54;52.30;;;28.02;;
45392;SDS011;31129;44.810;10.334;2022-12-31T04:43:39;49.47;;;27.27;;
45392;SDS011;31129;44.810;10.334;2022-12-31T04:46:05;52.67;;;27.70;;
45392;SDS011;31129;44.810;10.334;2022-12-31T04:48:31;47.65;;;26.90;;
45392;SDS011;31129;44.810;10.334;2022-12-31T04:50:57;45.63;;;26.83;;
45392;SDS011;31129;44.810;10.334;2022-12-31T04:53:23;47.92;;;27.50;;
45392;SDS011;31129;44.810;10.334;2022-12-31T04:55:49;50.63;;;26.35;;
45392;SDS011;31129;44.810;10.334;2022-12-31T04:58:14;44.17;;;25.52;;
45392;SDS011;31129;44.810;10.334;2022-12-31T05:00:40;42.83;;;25.60;;
45392;SDS011;31129;44.810;10.334;2022-12-31T05:03:05;42.15;;;24.42;;
45392;SDS011;31129;44.810;10.334;2022-12-31T05:05:31;45.65;;;24.45;;
45392;SDS011;31129;44.810;10.334;2022-12-31T05:07:56;44.67;;;25.60;;
45392;SDS011;31129;44.810;10.334;2022-12-31T05:10:21;40.83;;;24.92;;
45392;SDS011;31129;44.810;10.334;2022-12-31T05:12:47;47.55;;;26.05;;
45392;SDS011;31129;44.810;10.334;2022-12-31T05:15:13;53.67;;;27.92;;
45392;SDS011;31129;44.810;10.334;2022-12-31T05:17:41;49.03;;;26.63;;
45392;SDS011;31129;44.810;10.334;2022-12-31T05:20:07;45.40;;;25.85;;
45392;SDS011;31129;44.810;10.334;2022-12-31T05:22:32;41.97;;;25.15;;
45392;SDS011;31129;44.810;10.334;2022-12-31T05:24:58;48.88;;;25.98;;
45392;SDS011;31129;44.810;10.334;2022-12-31T05:27:25;45.08;;;25.92;;
45392;SDS011;31129;44.810;10.334;2022-12-31T05:29:51;43.75;;;25.40;;
45392;SDS011;31129;44.810;10.334;2022-12-31T05:32:20;44.83;;;25.30;;
45392;SDS011;31129;44.810;10.334;2022-12-31T05:34:45;43.95;;;25.15;;
45392;SDS011;31129;44.810;10.334;2022-12-31T05:37:11;49.83;;;27.02;;
45392;SDS011;31129;44.810;10.334;2022-12-31T05:39:36;47.97;;;26.85;;
45392;SDS011;31129;44.810;10.334;2022-12-31T05:42:02;49.30;;;28.05;;
45392;SDS011;31129;44.810;10.334;2022-12-31T05:44:27;57.13;;;28.92;;
45392;SDS011;31129;44.810;10.334;2022-12-31T05:46:53;53.88;;;29.23;;
45392;SDS011;31129;44.810;10.334;2022-12-31T05:49:18;66.22;;;32.42;;
45392;SDS011;31129;44.810;10.334;2022-12-31T05:51:43;69.43;;;33.55;;
45392;SDS011;31129;44.810;10.334;2022-12-31T05:54:09;71.53;;;33.30;;
45392;SDS011;31129;44.810;10.334;2022-12-31T05:56:35;71.47;;;34.22;;
45392;SDS011;31129;44.810;10.334;2022-12-31T05:59:00;72.43;;;35.00;;
45392;SDS011;31129;44.810;10.334;2022-12-31T06:01:26;76.88;;;37.50;;
45392;SDS011;31129;44.810;10.334;2022-12-31T06:03:51;76.65;;;36.63;;
45392;SDS011;31129;44.810;10.334;2022-12-31T06:06:16;73.47;;;35.33;;
45392;SDS011;31129;44.810;10.334;2022-12-31T06:08:42;68.78;;;34.95;;
45392;SDS011;31129;44.810;10.334;2022-12-31T06:11:07;62.97;;;33.00;;
45392;SDS011;31129;44.810;10.334;2022-12-31T06:13:33;71.78;;;34.28;;
45392;SDS011;31129;44.810;10.334;2022-12-31T06:16:03;67.30;;;33.28;;
45392;SDS011;31129;44.810;10.334;2022-12-31T06:18:30;71.35;;;35.50;;
45392;SDS011;31129;44.810;10.334;2022-12-31T06:20:56;70.78;;;35.35;;
45392;SDS011;31129;44.810;10.334;2022-12-31T06:23:22;77.15;;;36.85;;
45392;SDS011;31129;44.810;10.334;2022-12-31T06:25:48;81.40;;;40.75;;
45392;SDS011;31129;44.810;10.334;2022-12-31T06:28:13;79.78;;;40.67;;
45392;SDS011;31129;44.810;10.334;2022-12-31T06:30:39;84.18;;;40.67;;
45392;SDS011;31129;44.810;10.334;2022-12-31T06:33:04;86.07;;;41.28;;
45392;SDS011;31129;44.810;10.334;2022-12-31T06:35:30;94.72;;;44.53;;
45392;SDS011;31129;44.810;10.334;2022-12-31T06:37:55;94.03;;;41.15;;
45392;SDS011;31129;44.810;10.334;2022-12-31T06:40:21;85.07;;;42.35;;
45392;SDS011;31129;44.810;10.334;2022-12-31T06:42:46;86.47;;;43.10;;
45392;SDS011;31129;44.810;10.334;2022-12-31T06:45:11;86.38;;;43.10;;
45392;SDS011;31129;44.810;10.334;2022-12-31T06:47:37;93.78;;;44.40;;
45392;SDS011;31129;44.810;10.334;2022-12-31T06:50:02;96.93;;;44.72;;
45392;SDS011;31129;44.810;10.334;2022-12-31T06:52:28;97.05;;;46.17;;
45392;SDS011;31129;44.810;10.334;2022-12-31T06:54:54;98.80;;;50.10;;
45392;SDS011;31129;44.810;10.334;2022-12-31T06:57:20;101.53;;;49.85;;
45392;SDS011;31129;44.810;10.334;2022-12-31T06:59:47;100.25;;;48.10;;
45392;SDS011;31129;44.810;10.334;2022-12-31T07:02:20;90.78;;;47.17;;
45392;SDS011;31129;44.810;10.334;2022-12-31T07:08:15;88.80;;;45.00;;
45392;SDS011;31129;44.810;10.334;2022-12-31T07:20:57;102.35;;;49.88;;
45392;SDS011;31129;44.810;10.334;2022-12-31T07:23:23;99.60;;;48.95;;
45392;SDS011;31129;44.810;10.334;2022-12-31T07:26:41;88.88;;;48.78;;
45392;SDS011;31129;44.810;10.334;2022-12-31T07:31:46;91.97;;;47.47;;
45392;SDS011;31129;44.810;10.334;2022-12-31T07:39:40;96.40;;;48.42;;
45392;SDS011;31129;44.810;10.334;2022-12-31T07:42:27;106.75;;;54.88;;
45392;SDS011;31129;44.810;10.334;2022-12-31T07:48:23;93.35;;;49.38;;
45392;SDS011;31129;44.810;10.334;2022-12-31T07:50:50;91.70;;;49.60;;
45392;SDS011;31129;44.810;10.334;2022-12-31T07:53:19;80.97;;;46.53;;
45392;SDS011;31129;44.810;10.334;2022-12-31T07:55:45;85.93;;;49.22;;
45392;SDS011;31129;44.810;10.334;2022-12-31T07:58:17;87.63;;;47.70;;
45392;SDS011;31129;44.810;10.334;2022-12-31T08:00:46;90.30;;;50.03;;
45392;SDS011;31129;44.810;10.334;2022-12-31T08:09:28;84.03;;;47.53;;
45392;SDS011;31129;44.810;10.334;2022-12-31T08:12:10;84.10;;;47.65;;
45392;SDS011;31129;44.810;10.334;2022-12-31T08:14:44;86.13;;;48.10;;
45392;SDS011;31129;44.810;10.334;2022-12-31T08:17:13;82.18;;;47.47;;
45392;SDS011;31129;44.810;10.334;2022-12-31T08:19:40;83.15;;;47.72;;
45392;SDS011;31129;44.810;10.334;2022-12-31T08:41:37;82.40;;;47.08;;
45392;SDS011;31129;44.810;10.334;2022-12-31T08:49:28;79.07;;;45.13;;
45392;SDS011;31129;44.810;10.334;2022-12-31T08:54:21;88.07;;;48.30;;
45392;SDS011;31129;44.810;10.334;2022-12-31T08:57:03;85.82;;;48.00;;
45392;SDS011;31129;44.810;10.334;2022-12-31T09:07:35;75.22;;;46.75;;
45392;SDS011;31129;44.810;10.334;2022-12-31T09:10:11;73.35;;;46.47;;
45392;SDS011;31129;44.810;10.334;2022-12-31T09:18:21;80.22;;;45.60;;
45392;SDS011;31129;44.810;10.334;2022-12-31T09:20:48;80.90;;;46.80;;
45392;SDS011;31129;44.810;10.334;2022-12-31T09:23:14;80.93;;;46.90;;
45392;SDS011;31129;44.810;10.334;2022-12-31T09:26:00;77.18;;;45.72;;
45392;SDS011;31129;44.810;10.334;2022-12-31T09:29:00;76.40;;;45.80;;
45392;SDS011;31129;44.810;10.334;2022-12-31T09:31:37;76.50;;;44.78;;
45392;SDS011;31129;44.810;10.334;2022-12-31T09:37:00;77.43;;;45.75;;
45392;SDS011;31129;44.810;10.334;2022-12-31T09:50:37;71.97;;;44.38;;
45392;SDS011;31129;44.810;10.334;2022-12-31T09:55:39;75.63;;;44.47;;
45392;SDS011;31129;44.810;10.334;2022-12-31T10:01:28;70.03;;;42.85;;
45392;SDS011;31129;44.810;10.334;2022-12-31T10:10:29;77.43;;;43.47;;
45392;SDS011;31129;44.810;10.334;2022-12-31T10:16:05;69.70;;;41.22;;
45392;SDS011;31129;44.810;10.334;2022-12-31T10:27:12;74.95;;;41.83;;
45392;SDS011;31129;44.810;10.334;2022-12-31T10:30:18;74.47;;;42.03;;
45392;SDS011;31129;44.810;10.334;2022-12-31T10:52:25;71.25;;;41.22;;
45392;SDS011;31129;44.810;10.334;2022-12-31T11:00:21;68.75;;;39.88;;
45392;SDS011;31129;44.810;10.334;2022-12-31T11:17:44;55.58;;;32.75;;
45392;SDS011;31129;44.810;10.334;2022-12-31T11:26:18;57.92;;;35.13;;
45392;SDS011;31129;44.810;10.334;2022-12-31T11:29:37;58.35;;;34.60;;
45392;SDS011;31129;44.810;10.334;2022-12-31T11:35:02;59.42;;;34.25;;
45392;SDS011;31129;44.810;10.334;2022-12-31T11:37:49;56.25;;;34.78;;
45392;SDS011;31129;44.810;10.334;2022-12-31T11:40:40;62.75;;;39.63;;
45392;SDS011;31129;44.810;10.334;2022-12-31T11:48:58;59.63;;;36.10;;
45392;SDS011;31129;44.810;10.334;2022-12-31T11:56:52;66.95;;;39.50;;
45392;SDS011;31129;44.810;10.334;2022-12-31T11:59:27;61.08;;;38.38;;
45392;SDS011;31129;44.810;10.334;2022-12-31T12:01:59;69.65;;;40.85;;
45392;SDS011;31129;44.810;10.334;2022-12-31T12:04:34;69.15;;;41.58;;
45392;SDS011;31129;44.810;10.334;2022-12-31T12:07:00;62.85;;;40.50;;
45392;SDS011;31129;44.810;10.334;2022-12-31T12:09:26;66.88;;;40.28;;
45392;SDS011;31129;44.810;10.334;2022-12-31T12:12:01;60.25;;;40.17;;
45392;SDS011;31129;44.810;10.334;2022-12-31T12:14:33;60.65;;;39.20;;
45392;SDS011;31129;44.810;10.334;2022-12-31T12:17:00;67.47;;;41.85;;
45392;SDS011;31129;44.810;10.334;2022-12-31T12:19:29;70.63;;;43.33;;
45392;SDS011;31129;44.810;10.334;2022-12-31T12:21:55;64.20;;;42.40;;
45392;SDS011;31129;44.810;10.334;2022-12-31T12:24:25;75.97;;;43.35;;
45392;SDS011;31129;44.810;10.334;2022-12-31T12:26:53;64.75;;;41.83;;
45392;SDS011;31129;44.810;10.334;2022-12-31T12:29:20;64.72;;;42.10;;
45392;SDS011;31129;44.810;10.334;2022-12-31T12:32:02;68.63;;;42.35;;
45392;SDS011;31129;44.810;10.334;2022-12-31T12:36:56;76.25;;;45.05;;
45392;SDS011;31129;44.810;10.334;2022-12-31T12:39:23;68.95;;;41.97;;
45392;SDS011;31129;44.810;10.334;2022-12-31T12:42:07;67.68;;;43.78;;
45392;SDS011;31129;44.810;10.334;2022-12-31T12:44:36;67.55;;;44.33;;
45392;SDS011;31129;44.810;10.334;2022-12-31T12:47:03;72.00;;;45.63;;
45392;SDS011;31129;44.810;10.334;2022-12-31T12:49:37;71.35;;;45.40;;
45392;SDS011;31129;44.810;10.334;2022-12-31T12:57:22;73.88;;;46.28;;
45392;SDS011;31129;44.810;10.334;2022-12-31T13:19:29;69.03;;;45.28;;
45392;SDS011;31129;44.810;10.334;2022-12-31T13:25:06;67.35;;;44.60;;
45392;SDS011;31129;44.810;10.334;2022-12-31T13:27:41;68.72;;;44.67;;
45392;SDS011;31129;44.810;10.334;2022-12-31T13:32:54;74.20;;;46.13;;
45392;SDS011;31129;44.810;10.334;2022-12-31T13:35:29;73.03;;;46.05;;
45392;SDS011;31129;44.810;10.334;2022-12-31T13:38:00;72.90;;;44.53;;
45392;SDS011;31129;44.810;10.334;2022-12-31T13:40:39;65.13;;;43.42;;
45392;SDS011;31129;44.810;10.334;2022-12-31T13:49:19;67.68;;;43.97;;
45392;SDS011;31129;44.810;10.334;2022-12-31T13:51:51;70.47;;;45.22;;
45392;SDS011;31129;44.810;10.334;2022-12-31T13:58:40;68.80;;;44.58;;
45392;SDS011;31129;44.810;10.334;2022-12-31T14:01:00;72.28;;;44.85;;
45392;SDS011;31129;44.810;10.334;2022-12-31T14:07:11;67.40;;;44.08;;
45392;SDS011;31129;44.810;10.334;2022-12-31T14:09:22;70.68;;;45.00;;
45392;SDS011;31129;44.810;10.334;2022-12-31T14:12:12;69.00;;;44.08;;
45392;SDS011;31129;44.810;10.334;2022-12-31T14:17:29;70.55;;;45.22;;
45392;SDS011;31129;44.810;10.334;2022-12-31T14:20:24;70.18;;;44.67;;
45392;SDS011;31129;44.810;10.334;2022-12-31T14:25:40;68.80;;;45.30;;
45392;SDS011;31129;44.810;10.334;2022-12-31T14:28:18;69.22;;;44.25;;
45392;SDS011;31129;44.810;10.334;2022-12-31T14:30:55;72.70;;;45.28;;
45392;SDS011;31129;44.810;10.334;2022-12-31T14:33:32;73.70;;;46.00;;
45392;SDS011;31129;44.810;10.334;2022-12-31T14:36:25;68.28;;;44.20;;
45392;SDS011;31129;44.810;10.334;2022-12-31T14:39:12;71.35;;;47.00;;
45392;SDS011;31129;44.810;10.334;2022-12-31T14:44:37;68.32;;;45.83;;
45392;SDS011;31129;44.810;10.334;2022-12-31T14:50:15;73.07;;;46.80;;
45392;SDS011;31129;44.810;10.334;2022-12-31T14:55:30;76.45;;;47.05;;
45392;SDS011;31129;44.810;10.334;2022-12-31T14:58:20;70.13;;;44.75;;
45392;SDS011;31129;44.810;10.334;2022-12-31T15:00:58;68.72;;;45.90;;
45392;SDS011;31129;44.810;10.334;2022-12-31T15:03:36;72.05;;;46.05;;
45392;SDS011;31129;44.810;10.334;2022-12-31T15:24:53;70.18;;;46.67;;
45392;SDS011;31129;44.810;10.334;2022-12-31T15:29:59;76.20;;;47.03;;
45392;SDS011;31129;44.810;10.334;2022-12-31T15:32:36;86.50;;;48.92;;
45392;SDS011;31129;44.810;10.334;2022-12-31T15:37:55;73.57;;;47.45;;
45392;SDS011;31129;44.810;10.334;2022-12-31T15:40:24;75.05;;;47.15;;
45392;SDS011;31129;44.810;10.334;2022-12-31T15:42:51;70.20;;;47.78;;
45392;SDS011;31129;44.810;10.334;2022-12-31T15:45:24;78.03;;;49.60;;
45392;SDS011;31129;44.810;10.334;2022-12-31T15:47:56;72.70;;;48.22;;
45392;SDS011;31129;44.810;10.334;2022-12-31T15:50:24;77.60;;;49.28;;
45392;SDS011;31129;44.810;10.334;2022-12-31T15:55:20;73.85;;;47.55;;
45392;SDS011;31129;44.810;10.334;2022-12-31T15:57:50;74.93;;;48.97;;
45392;SDS011;31129;44.810;10.334;2022-12-31T16:00:20;78.43;;;47.70;;
45392;SDS011;31129;44.810;10.334;2022-12-31T16:02:47;81.38;;;47.88;;
45392;SDS011;31129;44.810;10.334;2022-12-31T16:05:19;75.25;;;49.17;;
45392;SDS011;31129;44.810;10.334;2022-12-31T16:07:45;73.55;;;48.85;;
45392;SDS011;31129;44.810;10.334;2022-12-31T16:10:14;71.95;;;47.38;;
45392;SDS011;31129;44.810;10.334;2022-12-31T16:12:45;76.45;;;47.38;;
45392;SDS011;31129;44.810;10.334;2022-12-31T16:18:09;73.32;;;46.28;;
45392;SDS011;31129;44.810;10.334;2022-12-31T16:20:42;75.10;;;46.35;;
45392;SDS011;31129;44.810;10.334;2022-12-31T16:23:19;76.13;;;47.47;;
45392;SDS011;31129;44.810;10.334;2022-12-31T16:25:46;74.78;;;47.65;;
45392;SDS011;31129;44.810;10.334;2022-12-31T16:28:17;70.82;;;44.95;;
45392;SDS011;31129;44.810;10.334;2022-12-31T16:30:53;71.72;;;44.58;;
45392;SDS011;31129;44.810;10.334;2022-12-31T16:33:24;67.45;;;43.13;;
45392;SDS011;31129;44.810;10.334;2022-12-31T16:35:57;75.20;;;46.53;;
45392;SDS011;31129;44.810;10.334;2022-12-31T16:38:34;70.93;;;44.80;;
45392;SDS011;31129;44.810;10.334;2022-12-31T16:43:37;65.85;;;43.17;;
45392;SDS011;31129;44.810;10.334;2022-12-31T16:46:18;71.10;;;41.90;;
45392;SDS011;31129;44.810;10.334;2022-12-31T16:48:59;64.63;;;41.55;;
45392;SDS011;31129;44.810;10.334;2022-12-31T16:51:31;73.13;;;42.17;;
45392;SDS011;31129;44.810;10.334;2022-12-31T16:54:01;65.78;;;42.20;;
45392;SDS011;31129;44.810;10.334;2022-12-31T16:56:34;67.35;;;42.78;;
45392;SDS011;31129;44.810;10.334;2022-12-31T16:59:04;67.47;;;41.63;;
45392;SDS011;31129;44.810;10.334;2022-12-31T17:04:09;65.80;;;42.35;;
45392;SDS011;31129;44.810;10.334;2022-12-31T17:06:41;68.43;;;41.70;;
45392;SDS011;31129;44.810;10.334;2022-12-31T17:09:14;65.40;;;41.25;;
45392;SDS011;31129;44.810;10.334;2022-12-31T17:11:54;69.15;;;43.85;;
45392;SDS011;31129;44.810;10.334;2022-12-31T17:14:27;72.97;;;43.55;;
45392;SDS011;31129;44.810;10.334;2022-12-31T17:25:13;71.13;;;45.55;;
45392;SDS011;31129;44.810;10.334;2022-12-31T17:27:51;76.93;;;47.22;;
45392;SDS011;31129;44.810;10.334;2022-12-31T17:33:04;77.70;;;45.30;;
45392;SDS011;31129;44.810;10.334;2022-12-31T17:35:46;67.72;;;43.95;;
45392;SDS011;31129;44.810;10.334;2022-12-31T17:43:29;66.38;;;40.63;;
45392;SDS011;31129;44.810;10.334;2022-12-31T17:45:56;69.88;;;42.67;;
45392;SDS011;31129;44.810;10.334;2022-12-31T17:48:22;62.88;;;41.10;;
45392;SDS011;31129;44.810;10.334;2022-12-31T17:50:55;67.68;;;42.10;;
45392;SDS011;31129;44.810;10.334;2022-12-31T17:53:23;64.28;;;41.53;;
45392;SDS011;31129;44.810;10.334;2022-12-31T17:55:49;62.03;;;38.63;;
45392;SDS011;31129;44.810;10.334;2022-12-31T17:58:19;64.30;;;39.88;;
45392;SDS011;31129;44.810;10.334;2022-12-31T18:00:52;63.42;;;40.47;;
45392;SDS011;31129;44.810;10.334;2022-12-31T18:03:18;69.00;;;41.72;;
45392;SDS011;31129;44.810;10.334;2022-12-31T18:05:44;61.50;;;39.75;;
45392;SDS011;31129;44.810;10.334;2022-12-31T18:08:09;63.70;;;40.35;;
45392;SDS011;31129;44.810;10.334;2022-12-31T18:10:35;60.90;;;39.85;;
45392;SDS011;31129;44.810;10.334;2022-12-31T18:13:06;65.35;;;39.90;;
45392;SDS011;31129;44.810;10.334;2022-12-31T18:15:38;61.47;;;39.47;;
45392;SDS011;31129;44.810;10.334;2022-12-31T18:18:15;63.50;;;40.00;;
45392;SDS011;31129;44.810;10.334;2022-12-31T18:20:48;61.90;;;39.53;;
45392;SDS011;31129;44.810;10.334;2022-12-31T18:23:20;60.97;;;38.92;;
45392;SDS011;31129;44.810;10.334;2022-12-31T18:25:49;62.65;;;40.15;;
45392;SDS011;31129;44.810;10.334;2022-12-31T18:28:15;61.25;;;39.15;;
45392;SDS011;31129;44.810;10.334;2022-12-31T18:30:40;62.83;;;38.67;;
45392;SDS011;31129;44.810;10.334;2022-12-31T18:33:09;63.88;;;40.50;;
45392;SDS011;31129;44.810;10.334;2022-12-31T18:35:36;59.58;;;39.30;;
45392;SDS011;31129;44.810;10.334;2022-12-31T18:38:13;61.10;;;40.03;;
45392;SDS011;31129;44.810;10.334;2022-12-31T18:40:42;63.15;;;42.65;;
45392;SDS011;31129;44.810;10.334;2022-12-31T18:43:18;65.77;;;40.47;;
45392;SDS011;31129;44.810;10.334;2022-12-31T18:45:45;68.25;;;41.42;;
45392;SDS011;31129;44.810;10.334;2022-12-31T18:48:11;60.28;;;40.15;;
45392;SDS011;31129;44.810;10.334;2022-12-31T18:50:37;59.00;;;39.65;;
45392;SDS011;31129;44.810;10.334;2022-12-31T18:53:04;65.70;;;40.17;;
45392;SDS011;31129;44.810;10.334;2022-12-31T18:55:38;61.65;;;40.88;;
45392;SDS011;31129;44.810;10.334;2022-12-31T18:58:05;68.05;;;41.00;;
45392;SDS011;31129;44.810;10.334;2022-12-31T19:00:32;62.03;;;41.15;;
45392;SDS011;31129;44.810;10.334;2022-12-31T19:02:58;62.88;;;41.60;;
45392;SDS011;31129;44.810;10.334;2022-12-31T19:05:28;65.60;;;41.33;;
45392;SDS011;31129;44.810;10.334;2022-12-31T19:07:55;79.03;;;45.40;;
45392;SDS011;31129;44.810;10.334;2022-12-31T19:10:21;66.90;;;42.03;;
45392;SDS011;31129;44.810;10.334;2022-12-31T19:12:47;68.32;;;43.65;;
45392;SDS011;31129;44.810;10.334;2022-12-31T19:15:21;60.03;;;39.20;;
45392;SDS011;31129;44.810;10.334;2022-12-31T19:17:55;65.32;;;41.50;;
45392;SDS011;31129;44.810;10.334;2022-12-31T19:20:21;66.00;;;41.35;;
45392;SDS011;31129;44.810;10.334;2022-12-31T19:22:47;65.80;;;42.90;;
45392;SDS011;31129;44.810;10.334;2022-12-31T19:27:58;74.40;;;45.78;;
45392;SDS011;31129;44.810;10.334;2022-12-31T19:30:25;69.32;;;43.08;;
45392;SDS011;31129;44.810;10.334;2022-12-31T19:32:55;68.32;;;44.78;;
45392;SDS011;31129;44.810;10.334;2022-12-31T19:35:21;67.30;;;42.17;;
45392;SDS011;31129;44.810;10.334;2022-12-31T19:37:48;72.13;;;44.92;;
45392;SDS011;31129;44.810;10.334;2022-12-31T19:40:17;70.83;;;45.90;;